Terminal Aerodrome Forecast
Issued by NWS Amarillo, TX

Home | Current Version | Previous Version | Text Only | Print | Product List | Glossary On
Versions: 1 2 3 4 5 6 7 8 9 10 11 12 13 14 15 16 17 18 19 20 21 22
000
FTUS44 KAMA 291500 AAA
TAFGUY
TAF AMD
KGUY 291521Z 2915/3012 18013KT P6SM VCSH BKN030
      TEMPO 2915/2917 3SM TSRA BKN030CB
     FM291800 19014KT P6SM SCT040 BKN090
     FM300100 17010KT P6SM BKN080
     FM300500 17010KT P6SM VCTS BKN060CB=

USA.gov is the U.S. government's official web portal to all federal, state and local government web resources and services.